createdAt,value
2024-04-18T00:00:52.483Z,50.877335
2024-04-18T00:01:52.426Z,50.877480
2024-04-18T00:02:52.400Z,50.877346
2024-04-18T00:03:52.500Z,50.877483
2024-04-18T00:04:52.511Z,50.877285
2024-04-18T00:05:52.361Z,50.877262
2024-04-18T00:06:52.404Z,50.877224
2024-04-18T00:07:52.344Z,50.877228
2024-04-18T00:08:52.346Z,50.877216
2024-04-18T00:09:52.336Z,50.877235
2024-04-18T00:10:52.323Z,50.877224
2024-04-18T00:11:52.310Z,50.877251
2024-04-18T00:12:52.298Z,50.877296
2024-04-18T00:13:52.281Z,50.877281
2024-04-18T00:14:52.305Z,50.877254
2024-04-18T00:15:52.317Z,50.877247
2024-04-18T00:16:52.253Z,50.877285
2024-04-18T00:17:52.304Z,50.877312
2024-04-18T00:18:52.251Z,50.877312
2024-04-18T00:19:52.221Z,50.877270
2024-04-18T00:20:52.239Z,50.877266
2024-04-18T00:21:52.233Z,50.877274
2024-04-18T00:22:52.194Z,50.877247
2024-04-18T00:23:52.197Z,50.877270
2024-04-18T00:24:52.205Z,50.877293
2024-04-18T00:25:52.189Z,50.877296
2024-04-18T00:26:52.162Z,50.877296
2024-04-18T00:27:52.225Z,50.877258
2024-04-18T00:28:52.149Z,50.877243
2024-04-18T00:29:52.132Z,50.877247
2024-04-18T00:30:52.150Z,50.877289
2024-04-18T00:31:52.125Z,50.877289
2024-04-18T00:32:52.149Z,50.877308
2024-04-18T00:33:52.176Z,50.877266
2024-04-18T00:34:52.081Z,50.877254
2024-04-18T00:35:52.072Z,50.877266
2024-04-18T00:36:52.118Z,50.877220
2024-04-18T00:37:52.060Z,50.877247
2024-04-18T00:38:52.110Z,50.877262
2024-04-18T00:39:52.180Z,50.877251
2024-04-18T00:40:52.053Z,50.877224
2024-04-18T00:41:52.011Z,50.877220
2024-04-18T00:42:52.054Z,50.877232
2024-04-18T00:43:51.992Z,50.877220
2024-04-18T00:44:51.989Z,50.877224
2024-04-18T00:45:52.072Z,50.877235
2024-04-18T00:46:51.962Z,50.877213
2024-04-18T00:47:52.012Z,50.877239
2024-04-18T00:48:52.061Z,50.877239
2024-04-18T00:49:51.936Z,50.877254
2024-04-18T00:50:51.955Z,50.877254
2024-04-18T00:51:51.922Z,50.877232
2024-04-18T00:52:51.903Z,50.877205
2024-04-18T00:53:51.929Z,50.877216
2024-04-18T00:54:51.882Z,50.877186
2024-04-18T00:55:51.871Z,50.877228
2024-04-18T00:56:51.890Z,50.877220
2024-04-18T00:57:51.879Z,50.877190
2024-04-18T00:58:51.876Z,50.877220
2024-04-18T00:59:51.866Z,50.877186
2024-04-18T01:00:51.940Z,50.877201
2024-04-18T01:01:51.828Z,50.877186
2024-04-18T01:02:51.810Z,50.877232
2024-04-18T01:03:51.919Z,50.877213
2024-04-18T01:04:51.825Z,50.877228
2024-04-18T01:05:51.793Z,50.877216
2024-04-18T01:06:51.781Z,50.877228
2024-04-18T01:07:51.773Z,50.877224
2024-04-18T01:08:51.748Z,50.877201
2024-04-18T01:09:51.771Z,50.877216
2024-04-18T01:10:51.756Z,50.877209
2024-04-18T01:11:51.747Z,50.877254
2024-04-18T01:12:51.749Z,50.877235
2024-04-18T01:13:51.701Z,50.877258
2024-04-18T01:14:51.702Z,50.877213
2024-04-18T01:15:51.717Z,50.877247
2024-04-18T01:16:51.692Z,50.877213
2024-04-18T01:17:51.716Z,50.877182
2024-04-18T01:18:51.680Z,50.877178
2024-04-18T01:19:51.647Z,50.877209
2024-04-18T01:20:51.648Z,50.877220
2024-04-18T01:21:51.682Z,50.877178
2024-04-18T01:22:51.637Z,50.877178
2024-04-18T01:23:51.617Z,50.877190
2024-04-18T01:24:51.661Z,50.877186
2024-04-18T01:25:51.584Z,50.877182
2024-04-18T01:26:51.596Z,50.877171
2024-04-18T01:27:51.633Z,50.877182
2024-04-18T01:28:51.563Z,50.877186
2024-04-18T01:29:51.550Z,50.877182
2024-04-18T01:30:51.581Z,50.877178
2024-04-18T01:31:51.533Z,50.877182
2024-04-18T01:32:51.618Z,50.877090
2024-04-18T01:33:51.539Z,50.877190
2024-04-18T01:34:51.503Z,50.877159
2024-04-18T01:35:51.499Z,50.877174
2024-04-18T01:36:51.494Z,50.877201
2024-04-18T01:37:51.469Z,50.877174
2024-04-18T01:38:51.486Z,50.877121
2024-04-18T01:39:51.506Z,50.877190
2024-04-18T01:40:51.439Z,50.877197
2024-04-18T01:41:51.429Z,50.877155
2024-04-18T01:42:51.429Z,50.877129
2024-04-18T01:43:51.432Z,50.877171
2024-04-18T01:44:51.406Z,50.877193
2024-04-18T01:45:51.449Z,50.877216
2024-04-18T01:46:51.388Z,50.877186
2024-04-18T01:47:51.422Z,50.877178
2024-04-18T01:48:51.404Z,50.877193
2024-04-18T01:49:51.371Z,50.877209
2024-04-18T01:50:51.383Z,50.877201
2024-04-18T01:51:51.401Z,50.877186
2024-04-18T01:52:51.342Z,50.877171
2024-04-18T01:53:51.311Z,50.877167
2024-04-18T01:54:51.346Z,50.877197
2024-04-18T01:55:51.294Z,50.877201
2024-04-18T01:56:51.289Z,50.877178
2024-04-18T01:57:51.332Z,50.877178
2024-04-18T01:58:51.293Z,50.877197
2024-04-18T01:59:51.260Z,50.877163
2024-04-18T02:00:51.367Z,50.877190
2024-04-18T02:01:52.234Z,50.877186
2024-04-18T02:02:51.262Z,50.877190
2024-04-18T02:03:51.251Z,50.877197
2024-04-18T02:04:51.235Z,50.877216
2024-04-18T02:05:51.196Z,50.877197
2024-04-18T02:06:51.190Z,50.877163
2024-04-18T02:07:51.203Z,50.877197
2024-04-18T02:08:51.203Z,50.877201
2024-04-18T02:09:51.228Z,50.877155
2024-04-18T02:10:51.234Z,50.877193
2024-04-18T02:11:51.132Z,50.877193
2024-04-18T02:12:51.196Z,50.877216
2024-04-18T02:13:51.132Z,50.877216
2024-04-18T02:14:51.110Z,50.877193
2024-04-18T02:15:51.203Z,50.877193
2024-04-18T02:16:51.096Z,50.877205
2024-04-18T02:17:51.132Z,50.877186
2024-04-18T02:18:51.157Z,50.877182
2024-04-18T02:19:51.070Z,50.877159
2024-04-18T02:20:51.053Z,50.877171
2024-04-18T02:21:51.072Z,50.877182
2024-04-18T02:22:51.052Z,50.877213
2024-04-18T02:23:51.050Z,50.877201
2024-04-18T02:24:51.054Z,50.877186
2024-04-18T02:25:51.006Z,50.877182
2024-04-18T02:26:50.997Z,50.877182
2024-04-18T02:27:51.052Z,50.877209
2024-04-18T02:28:50.988Z,50.877190
2024-04-18T02:29:50.968Z,50.877182
2024-04-18T02:30:50.965Z,50.877186
2024-04-18T02:31:50.983Z,50.877190
2024-04-18T02:32:50.972Z,50.877193
2024-04-18T02:33:51.293Z,50.877193
2024-04-18T02:34:50.914Z,50.877201
2024-04-18T02:35:50.916Z,50.877201
2024-04-18T02:36:50.950Z,50.877190
2024-04-18T02:37:50.906Z,50.877186
2024-04-18T02:38:50.873Z,50.877178
2024-04-18T02:39:50.934Z,50.877190
2024-04-18T02:40:50.857Z,50.877193
2024-04-18T02:41:50.867Z,50.877209
2024-04-18T02:42:50.921Z,50.877205
2024-04-18T02:43:50.833Z,50.877197
2024-04-18T02:44:50.836Z,50.877186
2024-04-18T02:45:50.901Z,50.877197
2024-04-18T02:46:50.804Z,50.877190
2024-04-18T02:47:50.969Z,50.877159
2024-04-18T02:48:50.785Z,50.877167
2024-04-18T02:49:50.776Z,50.877174
2024-04-18T02:50:50.770Z,50.877174
2024-04-18T02:51:50.807Z,50.877182
2024-04-18T02:52:50.740Z,50.877197
2024-04-18T02:53:50.757Z,50.877193
2024-04-18T02:54:50.774Z,50.877178
2024-04-18T02:55:50.716Z,50.877171
2024-04-18T02:56:50.715Z,50.877163
2024-04-18T02:57:50.752Z,50.877201
2024-04-18T02:58:50.706Z,50.877193
2024-04-18T02:59:50.679Z,50.877201
2024-04-18T03:00:50.815Z,50.877182
2024-04-18T03:01:50.649Z,50.877174
2024-04-18T03:02:50.679Z,50.877209
2024-04-18T03:03:50.857Z,50.877216
2024-04-18T03:04:50.649Z,50.877205
2024-04-18T03:05:50.639Z,50.877201
2024-04-18T03:06:50.618Z,50.877193
2024-04-18T03:07:50.632Z,50.877178
2024-04-18T03:08:50.592Z,50.877167
2024-04-18T03:09:50.629Z,50.877159
2024-04-18T03:10:50.562Z,50.877171
2024-04-18T03:11:50.591Z,50.877174
2024-04-18T03:12:50.595Z,50.877186
2024-04-18T03:13:50.546Z,50.877117
2024-04-18T03:14:50.558Z,50.877178
2024-04-18T03:15:51.588Z,50.877182
2024-04-18T03:16:50.518Z,50.877205
2024-04-18T03:17:50.595Z,50.877205
2024-04-18T03:18:50.534Z,50.877159
2024-04-18T03:19:50.492Z,50.877186
2024-04-18T03:20:50.469Z,50.877197
2024-04-18T03:21:50.479Z,50.877193
2024-04-18T03:22:50.442Z,50.877186
2024-04-18T03:23:50.465Z,50.877178
2024-04-18T03:24:50.487Z,50.877201
2024-04-18T03:25:50.422Z,50.877197
2024-04-18T03:26:50.415Z,50.877213
2024-04-18T03:27:50.442Z,50.877213
2024-04-18T03:28:50.384Z,50.877213
2024-04-18T03:29:50.373Z,50.877205
2024-04-18T03:30:50.424Z,50.877220
2024-04-18T03:31:50.393Z,50.877213
2024-04-18T03:32:50.399Z,50.877197
2024-04-18T03:33:50.391Z,50.877190
2024-04-18T03:34:50.351Z,50.877205
2024-04-18T03:35:50.313Z,50.877220
2024-04-18T03:36:50.358Z,50.877205
2024-04-18T03:37:50.303Z,50.877201
2024-04-18T03:38:50.299Z,50.877163
2024-04-18T03:39:50.380Z,50.877201
2024-04-18T03:40:50.282Z,50.877174
2024-04-18T03:41:50.280Z,50.877174
2024-04-18T03:42:50.264Z,50.877201
2024-04-18T03:43:50.232Z,50.877205
2024-04-18T03:44:50.229Z,50.877220
2024-04-18T03:45:50.322Z,50.877193
2024-04-18T03:46:50.204Z,50.877209
2024-04-18T03:47:50.230Z,50.877174
2024-04-18T03:48:50.214Z,50.877182
2024-04-18T03:49:50.196Z,50.877171
2024-04-18T03:50:50.174Z,50.877182
2024-04-18T03:51:50.283Z,50.877193
2024-04-18T03:52:50.143Z,50.877167
2024-04-18T03:53:50.140Z,50.877171
2024-04-18T03:55:00.717Z,50.877201
2024-04-18T03:55:52.118Z,50.877201
2024-04-18T03:56:50.103Z,50.877186
2024-04-18T03:57:50.132Z,50.877186
2024-04-18T03:58:50.090Z,50.877213
2024-04-18T03:59:50.076Z,50.877209
2024-04-18T04:00:50.168Z,50.877197
2024-04-18T04:01:50.089Z,50.877213
2024-04-18T04:02:50.049Z,50.877193
2024-04-18T04:03:50.076Z,50.877190
2024-04-18T04:04:50.024Z,50.877197
2024-04-18T04:05:50.037Z,50.877216
2024-04-18T04:06:50.013Z,50.877209
2024-04-18T04:07:49.995Z,50.877220
2024-04-18T04:08:49.982Z,50.877205
2024-04-18T04:09:50.032Z,50.877186
2024-04-18T04:10:49.976Z,50.877178
2024-04-18T04:11:49.953Z,50.877190
2024-04-18T04:12:49.989Z,50.877209
2024-04-18T04:13:49.930Z,50.877178
2024-04-18T04:14:49.942Z,50.877182
2024-04-18T04:15:49.968Z,50.877220
2024-04-18T04:16:49.907Z,50.877243
2024-04-18T04:17:49.935Z,50.877213
2024-04-18T04:18:49.982Z,50.877205
2024-04-18T04:19:49.886Z,50.877155
2024-04-18T04:20:49.889Z,50.877197
2024-04-18T04:21:49.966Z,50.877209
2024-04-18T04:22:49.854Z,50.877182
2024-04-18T04:23:49.879Z,50.877190
2024-04-18T04:24:49.918Z,50.877197
2024-04-18T04:25:49.848Z,50.877197
2024-04-18T04:26:49.857Z,50.877197
2024-04-18T04:27:49.914Z,50.877239
2024-04-18T04:28:49.823Z,50.877205
2024-04-18T04:29:49.780Z,50.877209
2024-04-18T04:30:49.885Z,50.877163
2024-04-18T04:31:49.923Z,50.877071
2024-04-18T04:32:49.765Z,50.877182
2024-04-18T04:33:49.867Z,50.877193
2024-04-18T04:34:49.732Z,50.877224
2024-04-18T04:35:49.785Z,50.877186
2024-04-18T04:36:49.814Z,50.877197
2024-04-18T04:37:49.700Z,50.877239
2024-04-18T04:38:49.692Z,50.877243
2024-04-18T04:39:49.730Z,50.877171
2024-04-18T04:40:49.690Z,50.877163
2024-04-18T04:41:49.671Z,50.877167
2024-04-18T04:42:49.723Z,50.877182
2024-04-18T04:43:49.652Z,50.877235
2024-04-18T04:44:49.672Z,50.877125
2024-04-18T04:45:49.673Z,50.877174
2024-04-18T04:46:49.638Z,50.877151
2024-04-18T04:47:49.681Z,50.877190
2024-04-18T04:48:49.780Z,50.877239
2024-04-18T04:49:49.599Z,50.877258
2024-04-18T04:50:49.576Z,50.877235
2024-04-18T04:51:49.661Z,50.877213
2024-04-18T04:52:49.558Z,50.877243
2024-04-18T04:53:52.044Z,50.877220
2024-04-18T04:54:49.571Z,50.877182
2024-04-18T04:55:49.546Z,50.877224
2024-04-18T04:56:49.527Z,50.877209
2024-04-18T04:57:49.563Z,50.877182
2024-04-18T04:58:49.505Z,50.877186
2024-04-18T04:59:49.497Z,50.877163
2024-04-18T05:00:49.615Z,50.877113
2024-04-18T05:01:49.532Z,50.877155
2024-04-18T05:02:50.090Z,50.877216
2024-04-18T05:03:50.591Z,50.877243
2024-04-18T05:04:49.438Z,50.877174
2024-04-18T05:05:49.430Z,50.877220
2024-04-18T05:06:49.532Z,50.877186
2024-04-18T05:07:51.373Z,50.877228
2024-04-18T05:08:49.409Z,50.877243
2024-04-18T05:09:49.466Z,50.877224
2024-04-18T05:10:49.413Z,50.877209
2024-04-18T05:11:49.377Z,50.877178
2024-04-18T05:12:49.432Z,50.877163
2024-04-18T05:13:49.347Z,50.877209
2024-04-18T05:14:49.345Z,50.877262
2024-04-18T05:15:49.367Z,50.877239
2024-04-18T05:16:49.476Z,50.877235
2024-04-18T05:17:49.325Z,50.877209
2024-04-18T05:18:49.400Z,50.877151
2024-04-18T05:19:49.302Z,50.877213
2024-04-18T05:20:49.284Z,50.877193
2024-04-18T05:21:49.368Z,50.877151
2024-04-18T05:22:49.297Z,50.877201
2024-04-18T05:23:49.281Z,50.877243
2024-04-18T05:24:49.450Z,50.877331
2024-04-18T05:25:49.256Z,50.877129
2024-04-18T05:26:49.234Z,50.877258
2024-04-18T05:27:49.330Z,50.877243
2024-04-18T05:28:49.235Z,50.877193
2024-04-18T05:29:49.210Z,50.877148
2024-04-18T05:30:49.216Z,50.877167
2024-04-18T05:31:49.180Z,50.877163
2024-04-18T05:32:49.373Z,50.877136
2024-04-18T05:33:49.190Z,50.877079
2024-04-18T05:34:49.145Z,50.877052
2024-04-18T05:35:49.146Z,50.877079
2024-04-18T05:36:49.357Z,50.877106
2024-04-18T05:37:49.115Z,50.877110
2024-04-18T05:38:49.144Z,50.877068
2024-04-18T05:39:49.108Z,50.877010
2024-04-18T05:40:49.094Z,50.876965
2024-04-18T05:41:49.080Z,50.877026
2024-04-18T05:42:49.225Z,50.877193
2024-04-18T05:43:49.057Z,50.877224
2024-04-18T05:44:49.082Z,50.877186
2024-04-18T05:45:49.099Z,50.877224
2024-04-18T05:46:49.079Z,50.877163
2024-04-18T05:47:49.038Z,50.877140
2024-04-18T05:48:49.098Z,50.877151
2024-04-18T05:49:49.021Z,50.877129
2024-04-18T05:50:48.999Z,50.877129
2024-04-18T05:51:49.083Z,50.877258
2024-04-18T05:52:48.984Z,50.877197
2024-04-18T05:53:48.993Z,50.877132
2024-04-18T05:54:48.992Z,50.877220
2024-04-18T05:55:48.976Z,50.877159
2024-04-18T05:56:48.936Z,50.877155
2024-04-18T05:57:50.045Z,50.877171
2024-04-18T05:58:48.936Z,50.877151
2024-04-18T05:59:48.904Z,50.877159
2024-04-18T06:00:48.994Z,50.877136
2024-04-18T06:01:48.895Z,50.877144
2024-04-18T06:02:48.879Z,50.877132
2024-04-18T06:03:49.917Z,50.877056
2024-04-18T06:04:48.941Z,50.877094
2024-04-18T06:05:48.858Z,50.877155
2024-04-18T06:06:48.890Z,50.877174
2024-04-18T06:07:48.822Z,50.877159
2024-04-18T06:08:48.834Z,50.877167
2024-04-18T06:09:48.896Z,50.877182
2024-04-18T06:10:48.916Z,50.877193
2024-04-18T06:11:48.799Z,50.877186
2024-04-18T06:12:48.901Z,50.877182
2024-04-18T06:13:48.774Z,50.877167
2024-04-18T06:14:48.770Z,50.877171
2024-04-18T06:15:49.662Z,50.877201
2024-04-18T06:16:48.767Z,50.877201
2024-04-18T06:17:48.764Z,50.877186
2024-04-18T06:18:48.792Z,50.877151
2024-04-18T06:19:48.714Z,50.877174
2024-04-18T06:20:48.691Z,50.877182
2024-04-18T06:21:48.777Z,50.877167
2024-04-18T06:22:48.683Z,50.877174
2024-04-18T06:23:48.702Z,50.877163
2024-04-18T06:24:49.240Z,50.877163
2024-04-18T06:25:49.678Z,50.877174
2024-04-18T06:26:48.655Z,50.877190
2024-04-18T06:27:48.789Z,50.877201
2024-04-18T06:28:48.668Z,50.877190
2024-04-18T06:29:48.614Z,50.877182
2024-04-18T06:30:48.692Z,50.877213
2024-04-18T06:31:48.757Z,50.877174
2024-04-18T06:32:48.621Z,50.877193
2024-04-18T06:33:48.780Z,50.877213
2024-04-18T06:34:48.573Z,50.877163
2024-04-18T06:35:48.555Z,50.877205
2024-04-18T06:36:48.582Z,50.877178
2024-04-18T06:37:48.565Z,50.877193
2024-04-18T06:38:48.521Z,50.877197
2024-04-18T06:39:48.523Z,50.877209
2024-04-18T06:40:48.512Z,50.877224
2024-04-18T06:41:48.527Z,50.877209
2024-04-18T06:42:48.531Z,50.877171
2024-04-18T06:43:48.494Z,50.877197
2024-04-18T06:44:48.471Z,50.877174
2024-04-18T06:45:48.568Z,50.877197
2024-04-18T06:46:53.278Z,50.877186
2024-04-18T06:47:50.644Z,50.877213
2024-04-18T06:48:48.497Z,50.877190
2024-04-18T06:49:48.436Z,50.877197
2024-04-18T06:50:48.416Z,50.877186
2024-04-18T06:51:48.464Z,50.877182
2024-04-18T06:52:48.411Z,50.877182
2024-04-18T06:53:48.375Z,50.877174
2024-04-18T06:54:48.414Z,50.877148
2024-04-18T06:55:48.359Z,50.877148
2024-04-18T06:56:48.355Z,50.877132
2024-04-18T06:57:48.530Z,50.877117
2024-04-18T06:58:48.326Z,50.877140
2024-04-18T06:59:48.326Z,50.877132
2024-04-18T07:00:48.622Z,50.877174
2024-04-18T07:01:48.309Z,50.877174
2024-04-18T07:02:48.377Z,50.877163
2024-04-18T07:03:48.406Z,50.877121
2024-04-18T07:04:48.381Z,50.877079
2024-04-18T07:05:48.270Z,50.877159
2024-04-18T07:06:48.276Z,50.877182
2024-04-18T07:07:48.275Z,50.877174
2024-04-18T07:08:48.238Z,50.877201
2024-04-18T07:09:49.717Z,50.877232
2024-04-18T07:10:49.213Z,50.877201
2024-04-18T07:11:48.282Z,50.877186
2024-04-18T07:12:48.294Z,50.877193
2024-04-18T07:13:48.193Z,50.877171
2024-04-18T07:14:48.183Z,50.877182
2024-04-18T07:15:48.233Z,50.877205
2024-04-18T07:16:48.164Z,50.877171
2024-04-18T07:17:48.211Z,50.877140
2024-04-18T07:18:48.334Z,50.877144
2024-04-18T07:19:48.142Z,50.877140
2024-04-18T07:20:48.120Z,50.877121
2024-04-18T07:21:48.155Z,50.877148
2024-04-18T07:22:48.104Z,50.877140
2024-04-18T07:23:48.111Z,50.877190
2024-04-18T07:24:48.076Z,50.877213
2024-04-18T07:25:48.112Z,50.877254
2024-04-18T07:26:48.126Z,50.877277
2024-04-18T07:27:48.070Z,50.877209
2024-04-18T07:28:49.078Z,50.877232
2024-04-18T07:29:48.027Z,50.877167
2024-04-18T07:30:48.091Z,50.877090
2024-04-18T07:31:48.010Z,50.877148
2024-04-18T07:32:48.250Z,50.877228
2024-04-18T07:33:48.054Z,50.877323
2024-04-18T07:34:47.990Z,50.877232
2024-04-18T07:35:47.968Z,50.877216
2024-04-18T07:36:48.046Z,50.877163
2024-04-18T07:37:47.947Z,50.877197
2024-04-18T07:38:47.930Z,50.877228
2024-04-18T07:39:47.928Z,50.877132
2024-04-18T07:40:47.927Z,50.877144
2024-04-18T07:41:47.945Z,50.877163
2024-04-18T07:42:47.935Z,50.877205
2024-04-18T07:43:47.887Z,50.877209
2024-04-18T07:44:47.898Z,50.877190
2024-04-18T07:45:47.935Z,50.877186
2024-04-18T07:46:47.851Z,50.877201
2024-04-18T07:47:47.900Z,50.877239
2024-04-18T07:48:47.923Z,50.877281
2024-04-18T07:49:49.476Z,50.877197
2024-04-18T07:50:48.831Z,50.877209
2024-04-18T07:51:47.820Z,50.877258
2024-04-18T07:52:56.570Z,50.877228
2024-04-18T07:53:48.791Z,50.877239
2024-04-18T07:54:47.809Z,50.877216
2024-04-18T07:55:47.771Z,50.877209
2024-04-18T07:56:48.106Z,50.877216
2024-04-18T07:57:48.184Z,50.877193
2024-04-18T07:58:48.227Z,50.877190
2024-04-18T07:59:48.535Z,50.877213
2024-04-18T08:00:48.730Z,50.877182
2024-04-18T08:01:49.110Z,50.877186
2024-04-18T08:02:50.795Z,50.877228
2024-04-18T08:03:56.810Z,50.877209
2024-04-18T08:04:55.564Z,50.877205
2024-04-18T08:05:51.798Z,50.877254
2024-04-18T08:06:50.347Z,50.877316
2024-04-18T08:07:49.988Z,50.877285
2024-04-18T08:08:51.456Z,50.877144
2024-04-18T08:09:51.164Z,50.877186
2024-04-18T08:11:08.198Z,50.877213
2024-04-18T08:12:51.340Z,50.877213
2024-04-18T08:13:52.468Z,50.877182
2024-04-18T08:14:51.013Z,50.877171
2024-04-18T08:16:48.623Z,50.877190
2024-04-18T08:17:47.586Z,50.877186
2024-04-18T08:18:47.548Z,50.877186
2024-04-18T08:19:47.541Z,50.877254
2024-04-18T08:20:47.530Z,50.877151
2024-04-18T08:21:47.517Z,50.877136
2024-04-18T08:22:47.531Z,50.877075
2024-04-18T08:23:47.493Z,50.877190
2024-04-18T08:24:47.488Z,50.877232
2024-04-18T08:25:47.476Z,50.877110
2024-04-18T08:26:47.470Z,50.877132
2024-04-18T08:27:47.481Z,50.877201
2024-04-18T08:28:47.457Z,50.877193
2024-04-18T08:29:47.451Z,50.877159
2024-04-18T08:30:47.527Z,50.877171
2024-04-18T08:31:47.446Z,50.877178
2024-04-18T08:32:47.452Z,50.877216
2024-04-18T08:33:54.368Z,50.877174
2024-04-18T08:34:48.845Z,50.877018
2024-04-18T08:35:47.382Z,50.877117
2024-04-18T08:36:47.370Z,50.877220
2024-04-18T08:37:47.392Z,50.877171
2024-04-18T08:38:47.371Z,50.877090
2024-04-18T08:39:48.083Z,50.877151
2024-04-18T08:40:47.344Z,50.877213
2024-04-18T08:41:47.643Z,50.877174
2024-04-18T08:42:48.610Z,50.877117
2024-04-18T08:43:52.089Z,50.877037
2024-04-18T08:45:19.279Z,50.877094
2024-04-18T08:45:47.327Z,50.877178
2024-04-18T08:46:47.294Z,50.877155
2024-04-18T08:47:47.410Z,50.877167
2024-04-18T08:48:47.464Z,50.877251
2024-04-18T08:49:47.329Z,50.877216
2024-04-18T08:50:48.291Z,50.877178
2024-04-18T08:51:47.307Z,50.877171
2024-04-18T08:52:47.290Z,50.877213
2024-04-18T08:53:47.253Z,50.877140
2024-04-18T08:54:47.520Z,50.877178
2024-04-18T08:55:47.275Z,50.877121
2024-04-18T08:56:47.222Z,50.877224
2024-04-18T08:57:47.210Z,50.877132
2024-04-18T08:58:47.207Z,50.877090
2024-04-18T08:59:47.201Z,50.877148
2024-04-18T09:00:47.233Z,50.877186
2024-04-18T09:01:47.170Z,50.877201
2024-04-18T09:02:47.239Z,50.877132
2024-04-18T09:03:48.183Z,50.877148
2024-04-18T09:04:47.263Z,50.877159
2024-04-18T09:05:47.119Z,50.877151
2024-04-18T09:06:47.147Z,50.877193
2024-04-18T09:07:47.144Z,50.877178
2024-04-18T09:08:47.104Z,50.877193
2024-04-18T09:09:47.200Z,50.877178
2024-04-18T09:10:47.139Z,50.877140
2024-04-18T09:11:47.071Z,50.877132
2024-04-18T09:12:47.066Z,50.877148
2024-04-18T09:13:47.041Z,50.877151
2024-04-18T09:14:47.050Z,50.877125
2024-04-18T09:15:47.045Z,50.877155
2024-04-18T09:16:47.047Z,50.877125
2024-04-18T09:17:47.114Z,50.877155
2024-04-18T09:18:47.146Z,50.877151
2024-04-18T09:19:46.977Z,50.877140
2024-04-18T09:20:47.011Z,50.877132
2024-04-18T09:21:46.983Z,50.877144
2024-04-18T09:22:46.932Z,50.877151
2024-04-18T09:23:46.949Z,50.877136
2024-04-18T09:24:46.959Z,50.877151
2024-04-18T09:25:46.911Z,50.877151
2024-04-18T09:26:46.914Z,50.877155
2024-04-18T09:27:46.912Z,50.877148
2024-04-18T09:28:46.900Z,50.877140
2024-04-18T09:29:46.877Z,50.877148
2024-04-18T09:30:46.882Z,50.877140
2024-04-18T09:31:46.895Z,50.877144
2024-04-18T09:32:46.877Z,50.877155
2024-04-18T09:33:47.019Z,50.877151
2024-04-18T09:34:46.949Z,50.877163
2024-04-18T09:35:46.814Z,50.877163
2024-04-18T09:36:46.856Z,50.877182
2024-04-18T09:37:53.159Z,50.877182
2024-04-18T09:38:48.772Z,50.877167
2024-04-18T09:39:46.826Z,50.877167
2024-04-18T09:40:46.764Z,50.877182
2024-04-18T09:41:46.745Z,50.877182
2024-04-18T09:42:46.810Z,50.877171
2024-04-18T09:43:46.744Z,50.877190
2024-04-18T09:44:46.808Z,50.877159
2024-04-18T09:45:46.733Z,50.877159
2024-04-18T09:46:46.760Z,50.877155
2024-04-18T09:47:47.555Z,50.877171
2024-04-18T09:48:47.026Z,50.877178
2024-04-18T09:49:46.686Z,50.877186
2024-04-18T09:50:46.681Z,50.877167
2024-04-18T09:51:46.725Z,50.877182
2024-04-18T09:52:46.690Z,50.877167
2024-04-18T09:53:46.658Z,50.877182
2024-04-18T09:54:47.811Z,50.877178
2024-04-18T09:55:46.669Z,50.877159
2024-04-18T09:56:46.692Z,50.877174
2024-04-18T09:57:46.601Z,50.877174
2024-04-18T09:58:46.658Z,50.877163
2024-04-18T09:59:46.582Z,50.877151
2024-04-18T10:00:46.600Z,50.877178
2024-04-18T10:01:46.625Z,50.877186
2024-04-18T10:02:46.623Z,50.877163
2024-04-18T10:03:46.665Z,50.877167
2024-04-18T10:04:46.696Z,50.877171
2024-04-18T10:05:46.571Z,50.877125
2024-04-18T10:06:46.562Z,50.877159
2024-04-18T10:07:46.555Z,50.877148
2024-04-18T10:08:46.524Z,50.877190
2024-04-18T10:09:46.531Z,50.877151
2024-04-18T10:10:46.608Z,50.877174
2024-04-18T10:11:46.505Z,50.877174
2024-04-18T10:12:46.552Z,50.877190
2024-04-18T10:13:46.457Z,50.877186
2024-04-18T10:14:46.508Z,50.877190
2024-04-18T10:15:46.451Z,50.877201
2024-04-18T10:16:46.421Z,50.877193
2024-04-18T10:17:46.493Z,50.877190
2024-04-18T10:18:47.806Z,50.877186
2024-04-18T10:19:46.421Z,50.877174
2024-04-18T10:20:46.384Z,50.877159
2024-04-18T10:22:48.301Z,50.877144
2024-04-18T10:23:46.364Z,50.877163
2024-04-18T10:24:46.367Z,50.877178
2024-04-18T10:25:46.383Z,50.877182
2024-04-18T10:26:46.379Z,50.877167
2024-04-18T10:27:46.413Z,50.877171
2024-04-18T10:28:46.351Z,50.877174
2024-04-18T10:29:46.316Z,50.877209
2024-04-18T10:30:46.327Z,50.877216
2024-04-18T10:31:46.362Z,50.877209
2024-04-18T10:32:46.409Z,50.877167
2024-04-18T10:33:46.428Z,50.877155
2024-04-18T10:34:46.274Z,50.877178
2024-04-18T10:35:46.272Z,50.877190
2024-04-18T10:36:46.357Z,50.877182
2024-04-18T10:37:46.235Z,50.877197
2024-04-18T10:38:46.275Z,50.877193
2024-04-18T10:39:46.261Z,50.877197
2024-04-18T10:40:46.282Z,50.877190
2024-04-18T10:41:46.229Z,50.877205
2024-04-18T10:42:46.293Z,50.877205
2024-04-18T10:43:46.221Z,50.877216
2024-04-18T10:44:46.178Z,50.877205
2024-04-18T10:45:46.221Z,50.877213
2024-04-18T10:46:46.124Z,50.877193
2024-04-18T10:47:46.227Z,50.877216
2024-04-18T10:48:46.297Z,50.877182
2024-04-18T10:49:46.135Z,50.877224
2024-04-18T10:50:46.199Z,50.877186
2024-04-18T10:51:46.101Z,50.877171
2024-04-18T10:52:46.099Z,50.877190
2024-04-18T10:53:46.137Z,50.877174
2024-04-18T10:54:46.155Z,50.877205
2024-04-18T10:55:46.113Z,50.877216
2024-04-18T10:56:46.091Z,50.877213
2024-04-18T10:57:46.082Z,50.877213
2024-04-18T10:58:46.046Z,50.877201
2024-04-18T10:59:46.062Z,50.877216
2024-04-18T11:00:46.114Z,50.877235
2024-04-18T11:01:46.092Z,50.877220
2024-04-18T11:02:46.106Z,50.877224
2024-04-18T11:03:46.182Z,50.877224
2024-04-18T11:04:46.114Z,50.877213
2024-04-18T11:05:45.991Z,50.877235
2024-04-18T11:06:46.030Z,50.877193
2024-04-18T11:07:45.950Z,50.877193
2024-04-18T11:08:45.956Z,50.877197
2024-04-18T11:09:45.941Z,50.877190
2024-04-18T11:10:45.926Z,50.877163
2024-04-18T11:11:45.895Z,50.877201
2024-04-18T11:12:45.888Z,50.877197
2024-04-18T11:13:45.914Z,50.877182
2024-04-18T11:14:46.007Z,50.877060
2024-04-18T11:15:45.903Z,50.877075
2024-04-18T11:16:45.879Z,50.877102
2024-04-18T11:17:45.961Z,50.877193
2024-04-18T11:18:46.007Z,50.877186
2024-04-18T11:19:45.842Z,50.877270
2024-04-18T11:20:45.834Z,50.877304
2024-04-18T11:21:45.814Z,50.877331
2024-04-18T11:22:48.075Z,50.877247
2024-04-18T11:23:51.539Z,50.877216
2024-04-18T11:24:46.879Z,50.877197
2024-04-18T11:25:45.757Z,50.877159
2024-04-18T11:26:45.739Z,50.877201
2024-04-18T11:27:45.749Z,50.877174